RSCO weather

Scotts Field
Fontaine, Arkansas, United States

Public forecast

Using degrees Fahrenheit for public forecast. Weather courtesy of forecast.io.

Closest aviation weather report (METAR) to Scotts Field

Closest report is Walnut Ridge Regional Airport, 9.0 nm (16.6 km) NW. Retrieved 2019/12/08 19:56 UTC (53 minutes ago):

KARG 081956Z AUTO 18010KT 10SM OVC007 09/07 A2999 RMK AO2 SLP157 T00890072

Closest aviation forecast (TAF) to Scotts Field

Closest forecast is Jonesboro Municipal Airport, 13.3 nm (24.6 km) SE. Retrieved 2019/12/08 18:30 UTC (2 hours ago):

TAF KJBR 081728Z 0818/0918 19007KT 5SM BR BKN004 FM082000 19011KT P6SM SCT005 BKN030 FM082200 18011G22KT P6SM BKN040 OVC150 FM090100 16011KT P6SM SCT015 OVC030 WS020/20045KT FM090800 19012KT P6SM BKN015 OVC050 WS020/22055KT FM091600 21017G25KT P6SM VCSH BKN025